»·PEaware :: N813TM KPSP-KLAS

N813TM :: KPSP-KLAS

FLIGHT INFORMATION

Flight Status: Arrived
Operator: Privately registered:
United States
More flights under this callsign
Pilot: Reg P. (16914)
Aircraft: Unknown
(PRM2)
More flights by this aircraft type
Origin: KPSP Palm Springs Intl
United States
Destination: KLAS McCarran Intl
United States
More flights between these airports :: More routes between these airports
Route: +CATH1 PSP TNP KEPEC6
File this flight plan on PilotEdge
Remarks:
Altitude:
(Current/Filed)
23,000ft
Speed:
(Current/Filed)
0kts
Departed: 05-Dec-17 04:33 PM
Arrived: 05-Dec-17 05:29 PM
Distance/Time
Traveled:
151nm/0:55
Distance/Time
To Go:
Arrived

Flight Plot

Page will automatically refresh every two minutes.

Flight plan parsing failed; only flown route is shown


Map Options




Map Legend


Flown Route
Filed Route
Departure Airport
Arrival Airport
Navaid (VOR, NDB)
Fix

Horizontal Profiles

Position Reports

Time Latitude Longitude Heading Altitude Ground
Speed
05-Dec-17 16:07 33.823429 -116.505995 253 480ft 0kts
05-Dec-17 16:08 33.823429 -116.505995 253 480ft 0kts
05-Dec-17 16:09 33.823429 -116.505995 253 480ft 0kts
05-Dec-17 16:10 33.823429 -116.505995 253 480ft 0kts
05-Dec-17 16:11 33.823429 -116.505995 253 480ft 0kts
05-Dec-17 16:12 33.823429 -116.505995 253 480ft 0kts
05-Dec-17 16:13 33.823429 -116.505995 253 480ft 0kts
05-Dec-17 16:14 33.823429 -116.505995 253 480ft 0kts
05-Dec-17 16:15 33.823429 -116.505995 253 480ft 0kts
05-Dec-17 16:16 33.823429 -116.505995 253 480ft 0kts
05-Dec-17 16:17 33.823429 -116.505995 253 480ft 0kts
05-Dec-17 16:18 33.823429 -116.505995 253 480ft 0kts
05-Dec-17 16:19 33.823429 -116.505995 253 480ft 0kts
05-Dec-17 16:20 33.823429 -116.505995 253 480ft 0kts
05-Dec-17 16:21 33.823429 -116.505995 253 480ft 0kts
05-Dec-17 16:22 33.823429 -116.505995 253 480ft 0kts
05-Dec-17 16:23 33.823429 -116.505995 253 480ft 0kts
05-Dec-17 16:24 33.823429 -116.505995 253 480ft 0kts
05-Dec-17 16:25 33.823429 -116.505995 253 480ft 0kts
05-Dec-17 16:26 33.823429 -116.505995 253 480ft 0kts
05-Dec-17 16:27 33.823429 -116.505995 253 480ft 0kts
05-Dec-17 16:28 33.823429 -116.505995 253 480ft 0kts
05-Dec-17 16:29 33.823429 -116.505995 253 480ft 0kts
05-Dec-17 16:30 33.823429 -116.505995 253 480ft 0kts
05-Dec-17 16:31 33.823429 -116.505995 253 480ft 0kts
05-Dec-17 16:32 33.823429 -116.505995 253 480ft 0kts
05-Dec-17 16:33 33.823963 -116.505576 83 480ft 0kts
05-Dec-17 16:34 33.822617 -116.503429 142 480ft 11kts
05-Dec-17 16:35 33.818517 -116.499641 89 480ft 17kts
05-Dec-17 16:36 33.818496 -116.499000 90 480ft 0kts
05-Dec-17 16:37 33.818495 -116.498886 90 480ft 6kts
05-Dec-17 16:38 33.821636 -116.500575 322 480ft 77kts
05-Dec-17 16:39 33.838871 -116.526451 263 2530ft 124kts
05-Dec-17 16:40 33.809275 -116.524609 150 4569ft 169kts
05-Dec-17 16:41 33.808725 -116.480485 51 4269ft 170kts
05-Dec-17 16:42 33.838126 -116.470310 337 3579ft 172kts
05-Dec-17 16:43 33.838126 -116.470310 337 3579ft 172kts
05-Dec-17 16:44 33.838126 -116.470310 337 3579ft 172kts
05-Dec-17 16:45 33.838126 -116.470310 337 3579ft 172kts
05-Dec-17 16:46 33.863111 -116.482637 342 3327ft 170kts
05-Dec-17 16:47 33.895160 -116.511829 321 4624ft 180kts
05-Dec-17 16:48 33.931777 -116.546746 321 6556ft 197kts
05-Dec-17 16:49 33.961847 -116.520002 95 8742ft 204kts
05-Dec-17 16:50 33.955913 -116.454779 95 11052ft 211kts
05-Dec-17 16:51 33.949559 -116.385166 95 13523ft 219kts
05-Dec-17 16:52 33.944292 -116.318202 90 14734ft 208kts
05-Dec-17 16:53 33.950724 -116.255906 77 15664ft 198kts
05-Dec-17 16:54 33.965665 -116.193603 71 16625ft 205kts
05-Dec-17 16:55 33.984593 -116.131881 68 17576ft 209kts
05-Dec-17 16:56 34.004483 -116.072819 67 18484ft 212kts
05-Dec-17 16:57 34.025435 -116.012931 66 19395ft 215kts
05-Dec-17 16:58 34.047890 -115.949765 66 20344ft 218kts
05-Dec-17 16:59 34.067047 -115.896183 66 21139ft 221kts
05-Dec-17 17:00 34.094382 -115.819834 66 22253ft 225kts
05-Dec-17 17:01 34.115613 -115.768058 45 22972ft 229kts
05-Dec-17 17:02 34.159897 -115.716496 43 22999ft 228kts
05-Dec-17 17:03 34.211742 -115.657948 42 23000ft 228kts
05-Dec-17 17:04 34.248928 -115.616082 42 23003ft 234kts
05-Dec-17 17:05 34.297309 -115.561649 42 23000ft 254kts
05-Dec-17 17:06 34.351921 -115.519382 20 23000ft 256kts
05-Dec-17 17:07 34.415127 -115.491167 19 23000ft 256kts
05-Dec-17 17:08 34.478284 -115.463180 19 23000ft 256kts
05-Dec-17 17:09 34.541447 -115.435150 19 23000ft 256kts
05-Dec-17 17:10 34.604751 -115.407030 19 23000ft 256kts
05-Dec-17 17:11 34.668772 -115.378563 19 22767ft 256kts
05-Dec-17 17:12 34.740347 -115.346702 20 21646ft 332kts
05-Dec-17 17:13 34.824670 -115.309119 20 19533ft 332kts
05-Dec-17 17:14 34.906224 -115.272723 20 17131ft 321kts
05-Dec-17 17:15 34.985183 -115.237438 20 15396ft 312kts
05-Dec-17 17:16 35.063527 -115.202384 20 14999ft 311kts
05-Dec-17 17:17 35.138071 -115.168989 20 14723ft 309kts
05-Dec-17 17:18 35.211255 -115.136555 15 14279ft 307kts
05-Dec-17 17:19 35.275063 -115.182132 311 13038ft 293kts
05-Dec-17 17:20 35.326869 -115.250384 316 13001ft 298kts
05-Dec-17 17:21 35.383387 -115.318606 315 13000ft 301kts
05-Dec-17 17:22 35.438771 -115.386475 315 12999ft 302kts
05-Dec-17 17:23 35.503221 -115.434187 10 13001ft 302kts
05-Dec-17 17:24 35.582244 -115.414972 11 11860ft 309kts
05-Dec-17 17:25 35.657625 -115.393362 21 9753ft 287kts
05-Dec-17 17:26 35.726622 -115.360155 21 7673ft 279kts
05-Dec-17 17:27 35.793338 -115.325078 20 7002ft 276kts
05-Dec-17 17:28 35.859689 -115.291796 23 6999ft 276kts
05-Dec-17 17:29 35.924566 -115.256121 24 6988ft 276kts
05-Dec-17 17:30 35.990148 -115.219664 24 4887ft 263kts
05-Dec-17 17:31 36.037928 -115.193344 23 3645ft 166kts
05-Dec-17 17:32 36.061611 -115.179536 26 2895ft 133kts
05-Dec-17 17:33 36.083471 -115.166024 30 2144ft 107kts
05-Dec-17 17:34 36.093082 -115.160337 16 2144ft 12kts
05-Dec-17 17:35 36.093322 -115.161593 202 2144ft 20kts
05-Dec-17 17:36 36.089685 -115.164654 213 2144ft 6kts
05-Dec-17 17:37 36.089328 -115.165963 333 2144ft 0kts

Navigation Log

Ident Type
Flight plan parsing failed, navigation log unavailable